Aviation Digital Data Service (ADDS)

Output produced by METARs form (0040 UTC 17 July 2019)
found at http://www.aviationweather.gov/metar/data/
 
GOGS 170000Z VRB02KT 9999 FEW015 27/23 Q1013
TAF GOGS 162330Z 1700/1724 VRB05KT 9999 SCT014 
     PROB40 
     TEMPO 1719/1724 4500 TSRA BKN012 FEW030CB
       
GOOK 170000Z 32006KT 9999 BKN015 BKN130 29/22 Q1014
GOTK 170000Z 00000KT 9999 TS SCT013 FEW030CB BKN130 25/24 Q1014
GOOY 170000Z 28002KT 8000 NSC 26/22 Q1014
TAF GOOY 162330Z 1700/1806 27007KT 9999 SCT013
       
GOSS 170000Z 28004KT CAVOK FEW010 BKN130 26/22 Q1013
TAF GOSS 162330Z 1700/1724 28007KT CAVOK
       
GOTT 170000Z 14006KT 100V160 CAVOK 28/24 Q1013
GOGG 170000Z VRB02KT CAVOK 26/24 Q1014